sensor_id;sensor_type;location;lat;lon;timestamp;P1;durP1;ratioP1;P2;durP2;ratioP2
5878;SDS011;2965;42.640;23.370;2023-05-10T04:02:49;8.20;;;7.03;;
5878;SDS011;2965;42.640;23.370;2023-05-10T04:05:14;6.87;;;6.20;;
5878;SDS011;2965;42.640;23.370;2023-05-10T04:07:40;10.20;;;6.87;;
5878;SDS011;2965;42.640;23.370;2023-05-10T04:10:05;10.67;;;7.10;;
5878;SDS011;2965;42.640;23.370;2023-05-10T04:12:31;7.27;;;6.40;;
5878;SDS011;2965;42.640;23.370;2023-05-10T04:14:56;8.07;;;6.80;;
5878;SDS011;2965;42.640;23.370;2023-05-10T04:17:22;6.93;;;5.80;;
5878;SDS011;2965;42.640;23.370;2023-05-10T04:19:47;5.90;;;5.50;;
5878;SDS011;2965;42.640;23.370;2023-05-10T04:22:12;6.60;;;6.10;;
5878;SDS011;2965;42.640;23.370;2023-05-10T04:24:38;7.33;;;6.67;;
5878;SDS011;2965;42.640;23.370;2023-05-10T04:27:03;11.93;;;7.57;;
5878;SDS011;2965;42.640;23.370;2023-05-10T04:29:28;7.10;;;6.50;;
5878;SDS011;2965;42.640;23.370;2023-05-10T04:31:54;6.60;;;6.00;;
5878;SDS011;2965;42.640;23.370;2023-05-10T04:34:21;7.43;;;6.63;;
5878;SDS011;2965;42.640;23.370;2023-05-10T04:36:47;7.23;;;6.60;;
5878;SDS011;2965;42.640;23.370;2023-05-10T04:39:12;8.40;;;6.40;;
5878;SDS011;2965;42.640;23.370;2023-05-10T04:41:38;8.57;;;7.10;;
5878;SDS011;2965;42.640;23.370;2023-05-10T04:44:04;15.60;;;7.37;;
5878;SDS011;2965;42.640;23.370;2023-05-10T04:46:29;7.13;;;6.53;;
5878;SDS011;2965;42.640;23.370;2023-05-10T04:48:54;12.40;;;6.90;;
5878;SDS011;2965;42.640;23.370;2023-05-10T04:51:20;8.27;;;7.57;;
5878;SDS011;2965;42.640;23.370;2023-05-10T04:53:45;8.33;;;7.53;;
5878;SDS011;2965;42.640;23.370;2023-05-10T04:56:10;9.07;;;7.87;;
5878;SDS011;2965;42.640;23.370;2023-05-10T04:58:36;8.50;;;7.80;;
5878;SDS011;2965;42.640;23.370;2023-05-10T05:01:05;9.53;;;8.17;;
5878;SDS011;2965;42.640;23.370;2023-05-10T05:03:32;8.87;;;7.97;;
5878;SDS011;2965;42.640;23.370;2023-05-10T05:05:57;10.90;;;8.50;;
5878;SDS011;2965;42.640;23.370;2023-05-10T05:08:23;9.37;;;8.10;;
5878;SDS011;2965;42.640;23.370;2023-05-10T05:10:48;10.20;;;8.57;;
5878;SDS011;2965;42.640;23.370;2023-05-10T05:13:15;9.37;;;8.27;;
5878;SDS011;2965;42.640;23.370;2023-05-10T05:15:40;9.40;;;8.50;;
5878;SDS011;2965;42.640;23.370;2023-05-10T05:18:06;8.43;;;7.80;;
5878;SDS011;2965;42.640;23.370;2023-05-10T05:20:32;8.70;;;7.80;;
5878;SDS011;2965;42.640;23.370;2023-05-10T05:23:00;9.77;;;8.87;;
5878;SDS011;2965;42.640;23.370;2023-05-10T05:25:26;8.80;;;7.90;;
5878;SDS011;2965;42.640;23.370;2023-05-10T05:27:51;10.23;;;8.60;;
5878;SDS011;2965;42.640;23.370;2023-05-10T05:30:16;10.73;;;8.60;;
5878;SDS011;2965;42.640;23.370;2023-05-10T05:32:42;10.67;;;8.67;;
5878;SDS011;2965;42.640;23.370;2023-05-10T05:35:07;8.60;;;7.80;;
5878;SDS011;2965;42.640;23.370;2023-05-10T05:37:33;9.10;;;8.20;;
5878;SDS011;2965;42.640;23.370;2023-05-10T05:39:58;9.50;;;8.57;;
5878;SDS011;2965;42.640;23.370;2023-05-10T05:42:25;9.70;;;8.80;;
5878;SDS011;2965;42.640;23.370;2023-05-10T05:44:50;11.67;;;8.40;;
5878;SDS011;2965;42.640;23.370;2023-05-10T05:47:16;13.40;;;9.10;;
5878;SDS011;2965;42.640;23.370;2023-05-10T05:49:41;10.07;;;8.60;;
5878;SDS011;2965;42.640;23.370;2023-05-10T05:52:06;14.00;;;10.23;;
5878;SDS011;2965;42.640;23.370;2023-05-10T05:54:32;11.13;;;9.60;;
5878;SDS011;2965;42.640;23.370;2023-05-10T05:56:57;13.20;;;10.83;;
5878;SDS011;2965;42.640;23.370;2023-05-10T05:59:23;13.80;;;9.20;;
5878;SDS011;2965;42.640;23.370;2023-05-10T06:01:49;15.10;;;9.83;;
5878;SDS011;2965;42.640;23.370;2023-05-10T06:04:14;15.63;;;10.73;;
5878;SDS011;2965;42.640;23.370;2023-05-10T06:06:40;16.90;;;10.13;;
5878;SDS011;2965;42.640;23.370;2023-05-10T06:09:05;13.13;;;9.60;;
5878;SDS011;2965;42.640;23.370;2023-05-10T06:11:31;16.10;;;11.40;;
5878;SDS011;2965;42.640;23.370;2023-05-10T06:13:59;13.83;;;10.30;;
5878;SDS011;2965;42.640;23.370;2023-05-10T06:16:25;11.27;;;10.00;;
5878;SDS011;2965;42.640;23.370;2023-05-10T06:18:51;14.90;;;10.73;;
5878;SDS011;2965;42.640;23.370;2023-05-10T06:21:16;21.73;;;11.17;;
5878;SDS011;2965;42.640;23.370;2023-05-10T06:23:41;19.80;;;10.93;;
5878;SDS011;2965;42.640;23.370;2023-05-10T06:26:07;16.57;;;10.77;;
5878;SDS011;2965;42.640;23.370;2023-05-10T06:28:32;11.80;;;10.10;;
5878;SDS011;2965;42.640;23.370;2023-05-10T06:30:58;16.00;;;10.87;;
5878;SDS011;2965;42.640;23.370;2023-05-10T06:33:24;13.30;;;10.93;;
5878;SDS011;2965;42.640;23.370;2023-05-10T06:35:49;16.07;;;10.90;;
5878;SDS011;2965;42.640;23.370;2023-05-10T06:38:15;16.97;;;10.93;;
5878;SDS011;2965;42.640;23.370;2023-05-10T06:40:41;14.07;;;9.87;;
5878;SDS011;2965;42.640;23.370;2023-05-10T06:43:07;19.07;;;11.50;;
5878;SDS011;2965;42.640;23.370;2023-05-10T06:45:32;19.07;;;10.57;;
5878;SDS011;2965;42.640;23.370;2023-05-10T06:47:58;15.67;;;11.27;;
5878;SDS011;2965;42.640;23.370;2023-05-10T07:21:43;13.67;;;9.50;;
5878;SDS011;2965;42.640;23.370;2023-05-10T07:24:08;12.60;;;10.50;;
5878;SDS011;2965;42.640;23.370;2023-05-10T07:26:34;12.53;;;10.47;;
5878;SDS011;2965;42.640;23.370;2023-05-10T07:28:59;15.80;;;11.03;;
5878;SDS011;2965;42.640;23.370;2023-05-10T07:31:25;12.57;;;11.03;;
5878;SDS011;2965;42.640;23.370;2023-05-10T07:33:50;14.77;;;10.53;;
5878;SDS011;2965;42.640;23.370;2023-05-10T07:36:16;19.80;;;12.10;;
5878;SDS011;2965;42.640;23.370;2023-05-10T07:38:41;16.53;;;11.97;;
5878;SDS011;2965;42.640;23.370;2023-05-10T07:41:06;23.33;;;13.23;;
5878;SDS011;2965;42.640;23.370;2023-05-10T07:43:32;21.70;;;12.90;;
5878;SDS011;2965;42.640;23.370;2023-05-10T07:45:57;15.77;;;11.43;;
5878;SDS011;2965;42.640;23.370;2023-05-10T07:48:24;13.60;;;11.50;;
5878;SDS011;2965;42.640;23.370;2023-05-10T07:50:50;14.67;;;11.10;;
5878;SDS011;2965;42.640;23.370;2023-05-10T07:53:15;14.60;;;12.00;;
5878;SDS011;2965;42.640;23.370;2023-05-10T07:55:41;15.20;;;11.57;;
5878;SDS011;2965;42.640;23.370;2023-05-10T07:58:07;21.50;;;12.67;;
5878;SDS011;2965;42.640;23.370;2023-05-10T08:00:32;13.57;;;11.07;;
5878;SDS011;2965;42.640;23.370;2023-05-10T08:02:58;14.37;;;11.53;;
5878;SDS011;2965;42.640;23.370;2023-05-10T08:05:23;16.30;;;12.43;;
5878;SDS011;2965;42.640;23.370;2023-05-10T08:07:48;13.27;;;11.00;;
5878;SDS011;2965;42.640;23.370;2023-05-10T08:10:14;16.40;;;10.50;;
5878;SDS011;2965;42.640;23.370;2023-05-10T08:12:39;17.57;;;12.10;;
5878;SDS011;2965;42.640;23.370;2023-05-10T08:15:04;17.70;;;12.47;;
5878;SDS011;2965;42.640;23.370;2023-05-10T08:17:31;17.60;;;12.30;;
5878;SDS011;2965;42.640;23.370;2023-05-10T08:19:56;18.53;;;12.40;;
5878;SDS011;2965;42.640;23.370;2023-05-10T08:22:22;14.13;;;11.57;;
5878;SDS011;2965;42.640;23.370;2023-05-10T08:24:47;13.20;;;11.50;;
5878;SDS011;2965;42.640;23.370;2023-05-10T08:27:13;23.73;;;11.10;;
5878;SDS011;2965;42.640;23.370;2023-05-10T08:29:38;11.93;;;10.73;;
5878;SDS011;2965;42.640;23.370;2023-05-10T08:32:03;17.10;;;11.60;;
5878;SDS011;2965;42.640;23.370;2023-05-10T08:34:29;15.90;;;12.03;;
5878;SDS011;2965;42.640;23.370;2023-05-10T08:36:56;15.27;;;11.50;;
5878;SDS011;2965;42.640;23.370;2023-05-10T08:39:21;16.07;;;13.60;;
5878;SDS011;2965;42.640;23.370;2023-05-10T08:41:48;12.87;;;11.10;;
5878;SDS011;2965;42.640;23.370;2023-05-10T08:44:18;14.30;;;10.80;;
5878;SDS011;2965;42.640;23.370;2023-05-10T08:46:46;17.30;;;11.67;;
5878;SDS011;2965;42.640;23.370;2023-05-10T08:49:18;12.80;;;11.20;;
5878;SDS011;2965;42.640;23.370;2023-05-10T08:51:47;12.97;;;10.87;;
5878;SDS011;2965;42.640;23.370;2023-05-10T08:54:16;13.47;;;12.07;;
5878;SDS011;2965;42.640;23.370;2023-05-10T08:56:42;13.73;;;11.47;;
5878;SDS011;2965;42.640;23.370;2023-05-10T08:59:08;16.50;;;12.83;;
5878;SDS011;2965;42.640;23.370;2023-05-10T09:01:33;18.17;;;11.70;;
5878;SDS011;2965;42.640;23.370;2023-05-10T09:04:01;16.27;;;12.13;;
5878;SDS011;2965;42.640;23.370;2023-05-10T09:06:27;16.50;;;12.93;;
5878;SDS011;2965;42.640;23.370;2023-05-10T09:08:53;16.40;;;12.53;;
5878;SDS011;2965;42.640;23.370;2023-05-10T09:11:19;18.93;;;13.20;;
5878;SDS011;2965;42.640;23.370;2023-05-10T09:13:45;18.47;;;14.10;;
5878;SDS011;2965;42.640;23.370;2023-05-10T09:16:15;19.83;;;13.23;;
5878;SDS011;2965;42.640;23.370;2023-05-10T09:18:41;16.87;;;13.57;;
5878;SDS011;2965;42.640;23.370;2023-05-10T10:06:19;14.80;;;13.13;;
5878;SDS011;2965;42.640;23.370;2023-05-10T10:08:44;12.00;;;10.80;;
5878;SDS011;2965;42.640;23.370;2023-05-10T10:11:10;12.20;;;11.00;;
5878;SDS011;2965;42.640;23.370;2023-05-10T10:13:35;14.60;;;11.70;;
5878;SDS011;2965;42.640;23.370;2023-05-10T10:16:00;12.53;;;10.47;;
5878;SDS011;2965;42.640;23.370;2023-05-10T10:18:27;18.50;;;12.17;;
5878;SDS011;2965;42.640;23.370;2023-05-10T10:20:54;15.30;;;12.07;;
5878;SDS011;2965;42.640;23.370;2023-05-10T10:23:20;12.50;;;11.27;;
5878;SDS011;2965;42.640;23.370;2023-05-10T10:25:46;10.50;;;9.50;;
5878;SDS011;2965;42.640;23.370;2023-05-10T10:28:24;14.53;;;10.90;;
5878;SDS011;2965;42.640;23.370;2023-05-10T10:31:12;12.83;;;11.47;;
5878;SDS011;2965;42.640;23.370;2023-05-10T10:34:01;14.77;;;10.63;;
5878;SDS011;2965;42.640;23.370;2023-05-10T10:36:30;14.60;;;10.83;;
5878;SDS011;2965;42.640;23.370;2023-05-10T10:38:58;20.60;;;11.47;;
5878;SDS011;2965;42.640;23.370;2023-05-10T10:44:37;11.93;;;10.67;;
5878;SDS011;2965;42.640;23.370;2023-05-10T10:49:24;13.33;;;10.20;;
5878;SDS011;2965;42.640;23.370;2023-05-10T10:54:53;13.77;;;10.70;;
5878;SDS011;2965;42.640;23.370;2023-05-10T10:57:21;11.23;;;10.10;;
5878;SDS011;2965;42.640;23.370;2023-05-10T10:59:47;10.17;;;9.17;;
5878;SDS011;2965;42.640;23.370;2023-05-10T11:10:40;12.13;;;9.47;;
5878;SDS011;2965;42.640;23.370;2023-05-10T11:13:13;12.03;;;9.43;;
5878;SDS011;2965;42.640;23.370;2023-05-10T11:15:39;14.67;;;11.40;;
5878;SDS011;2965;42.640;23.370;2023-05-10T11:18:31;12.37;;;10.00;;
5878;SDS011;2965;42.640;23.370;2023-05-10T11:20:57;13.87;;;11.00;;
5878;SDS011;2965;42.640;23.370;2023-05-10T11:26:07;16.63;;;10.60;;
5878;SDS011;2965;42.640;23.370;2023-05-10T11:28:34;12.70;;;9.97;;
5878;SDS011;2965;42.640;23.370;2023-05-10T11:31:00;23.10;;;11.67;;
5878;SDS011;2965;42.640;23.370;2023-05-10T11:33:25;13.63;;;10.30;;
5878;SDS011;2965;42.640;23.370;2023-05-10T11:35:50;11.53;;;10.40;;
5878;SDS011;2965;42.640;23.370;2023-05-10T11:38:16;10.17;;;9.27;;
5878;SDS011;2965;42.640;23.370;2023-05-10T11:40:41;13.93;;;9.93;;
5878;SDS011;2965;42.640;23.370;2023-05-10T11:43:08;11.37;;;10.00;;
5878;SDS011;2965;42.640;23.370;2023-05-10T11:45:35;12.27;;;9.57;;
5878;SDS011;2965;42.640;23.370;2023-05-10T11:48:01;10.17;;;9.27;;
5878;SDS011;2965;42.640;23.370;2023-05-10T11:50:27;15.60;;;10.50;;
5878;SDS011;2965;42.640;23.370;2023-05-10T11:52:53;13.33;;;10.30;;
5878;SDS011;2965;42.640;23.370;2023-05-10T11:55:20;13.90;;;10.30;;
5878;SDS011;2965;42.640;23.370;2023-05-10T11:57:46;10.43;;;9.40;;
5878;SDS011;2965;42.640;23.370;2023-05-10T12:00:12;21.20;;;10.47;;
5878;SDS011;2965;42.640;23.370;2023-05-10T12:02:38;13.47;;;10.53;;
5878;SDS011;2965;42.640;23.370;2023-05-10T12:05:04;14.03;;;11.07;;
5878;SDS011;2965;42.640;23.370;2023-05-10T12:07:31;12.40;;;11.13;;
5878;SDS011;2965;42.640;23.370;2023-05-10T12:13:02;16.03;;;11.67;;
5878;SDS011;2965;42.640;23.370;2023-05-10T12:15:22;10.20;;;9.30;;
5878;SDS011;2965;42.640;23.370;2023-05-10T12:17:48;11.27;;;10.20;;
5878;SDS011;2965;42.640;23.370;2023-05-10T12:22:54;12.70;;;11.43;;
5878;SDS011;2965;42.640;23.370;2023-05-10T12:25:21;12.30;;;11.10;;
5878;SDS011;2965;42.640;23.370;2023-05-10T12:27:51;15.03;;;10.90;;
5878;SDS011;2965;42.640;23.370;2023-05-10T12:30:19;14.60;;;11.10;;
5878;SDS011;2965;42.640;23.370;2023-05-10T12:32:46;12.27;;;10.57;;
5878;SDS011;2965;42.640;23.370;2023-05-10T12:35:11;17.00;;;10.87;;
5878;SDS011;2965;42.640;23.370;2023-05-10T12:37:39;14.83;;;10.87;;
5878;SDS011;2965;42.640;23.370;2023-05-10T12:40:06;12.50;;;11.20;;
5878;SDS011;2965;42.640;23.370;2023-05-10T12:42:33;14.37;;;9.70;;
5878;SDS011;2965;42.640;23.370;2023-05-10T12:44:59;20.80;;;9.53;;
5878;SDS011;2965;42.640;23.370;2023-05-10T12:47:24;9.37;;;8.57;;
5878;SDS011;2965;42.640;23.370;2023-05-10T12:49:50;11.00;;;9.40;;
5878;SDS011;2965;42.640;23.370;2023-05-10T12:52:16;13.40;;;9.60;;
5878;SDS011;2965;42.640;23.370;2023-05-10T12:54:41;11.43;;;10.23;;
5878;SDS011;2965;42.640;23.370;2023-05-10T12:57:07;20.87;;;12.57;;
5878;SDS011;2965;42.640;23.370;2023-05-10T12:59:32;16.03;;;11.70;;
5878;SDS011;2965;42.640;23.370;2023-05-10T13:01:58;10.73;;;9.63;;
5878;SDS011;2965;42.640;23.370;2023-05-10T13:04:23;10.13;;;9.10;;
5878;SDS011;2965;42.640;23.370;2023-05-10T13:06:48;12.40;;;9.87;;
5878;SDS011;2965;42.640;23.370;2023-05-10T13:09:14;11.60;;;10.03;;
5878;SDS011;2965;42.640;23.370;2023-05-10T13:11:40;13.10;;;10.70;;
5878;SDS011;2965;42.640;23.370;2023-05-10T13:14:05;13.23;;;10.50;;
5878;SDS011;2965;42.640;23.370;2023-05-10T13:16:31;12.00;;;10.67;;
5878;SDS011;2965;42.640;23.370;2023-05-10T13:18:56;17.00;;;8.30;;
5878;SDS011;2965;42.640;23.370;2023-05-10T13:21:22;10.70;;;8.37;;
5878;SDS011;2965;42.640;23.370;2023-05-10T13:23:49;14.60;;;9.13;;
5878;SDS011;2965;42.640;23.370;2023-05-10T13:26:15;14.03;;;8.97;;
5878;SDS011;2965;42.640;23.370;2023-05-10T13:28:40;11.80;;;8.60;;
5878;SDS011;2965;42.640;23.370;2023-05-10T13:31:05;10.20;;;9.20;;
5878;SDS011;2965;42.640;23.370;2023-05-10T13:33:31;9.90;;;8.10;;
5878;SDS011;2965;42.640;23.370;2023-05-10T13:35:56;12.80;;;9.70;;
5878;SDS011;2965;42.640;23.370;2023-05-10T13:38:21;9.33;;;8.30;;
5878;SDS011;2965;42.640;23.370;2023-05-10T13:40:47;17.80;;;9.30;;
5878;SDS011;2965;42.640;23.370;2023-05-10T13:43:12;15.77;;;8.33;;
5878;SDS011;2965;42.640;23.370;2023-05-10T13:45:38;9.43;;;8.50;;
5878;SDS011;2965;42.640;23.370;2023-05-10T13:48:04;13.97;;;9.73;;
5878;SDS011;2965;42.640;23.370;2023-05-10T13:50:29;14.87;;;11.17;;
5878;SDS011;2965;42.640;23.370;2023-05-10T13:52:55;14.10;;;10.73;;
5878;SDS011;2965;42.640;23.370;2023-05-10T13:58:42;12.90;;;9.00;;
5878;SDS011;2965;42.640;23.370;2023-05-10T14:01:07;14.50;;;10.83;;
5878;SDS011;2965;42.640;23.370;2023-05-10T14:03:33;12.17;;;10.73;;
5878;SDS011;2965;42.640;23.370;2023-05-10T14:05:58;9.67;;;8.83;;
5878;SDS011;2965;42.640;23.370;2023-05-10T14:08:23;12.23;;;9.73;;
5878;SDS011;2965;42.640;23.370;2023-05-10T14:10:49;12.67;;;9.50;;
5878;SDS011;2965;42.640;23.370;2023-05-10T14:13:15;10.70;;;9.70;;
5878;SDS011;2965;42.640;23.370;2023-05-10T14:15:41;10.03;;;9.10;;
5878;SDS011;2965;42.640;23.370;2023-05-10T14:18:06;35.03;;;11.27;;
5878;SDS011;2965;42.640;23.370;2023-05-10T14:20:31;9.50;;;8.50;;
5878;SDS011;2965;42.640;23.370;2023-05-10T14:22:58;22.70;;;11.13;;
5878;SDS011;2965;42.640;23.370;2023-05-10T14:25:24;11.27;;;9.77;;
5878;SDS011;2965;42.640;23.370;2023-05-10T14:27:50;19.00;;;10.10;;
5878;SDS011;2965;42.640;23.370;2023-05-10T14:30:15;10.40;;;9.07;;
5878;SDS011;2965;42.640;23.370;2023-05-10T14:32:41;14.10;;;10.50;;
5878;SDS011;2965;42.640;23.370;2023-05-10T14:35:06;16.93;;;9.40;;
5878;SDS011;2965;42.640;23.370;2023-05-10T14:37:32;11.30;;;10.20;;
5878;SDS011;2965;42.640;23.370;2023-05-10T14:39:57;13.90;;;10.40;;
5878;SDS011;2965;42.640;23.370;2023-05-10T14:42:23;17.07;;;10.10;;
5878;SDS011;2965;42.640;23.370;2023-05-10T14:44:48;10.40;;;9.23;;
5878;SDS011;2965;42.640;23.370;2023-05-10T14:47:14;11.70;;;9.07;;
5878;SDS011;2965;42.640;23.370;2023-05-10T14:49:39;11.07;;;9.97;;
5878;SDS011;2965;42.640;23.370;2023-05-10T14:55:27;22.80;;;10.97;;
5878;SDS011;2965;42.640;23.370;2023-05-10T14:57:52;10.53;;;9.47;;
5878;SDS011;2965;42.640;23.370;2023-05-10T15:00:18;11.43;;;10.30;;
5878;SDS011;2965;42.640;23.370;2023-05-10T15:02:44;14.30;;;9.10;;
5878;SDS011;2965;42.640;23.370;2023-05-10T15:05:09;16.20;;;11.40;;
5878;SDS011;2965;42.640;23.370;2023-05-10T15:07:35;9.47;;;8.63;;
5878;SDS011;2965;42.640;23.370;2023-05-10T15:10:00;10.30;;;8.90;;
5878;SDS011;2965;42.640;23.370;2023-05-10T15:12:26;9.70;;;8.87;;
5878;SDS011;2965;42.640;23.370;2023-05-10T15:14:51;13.27;;;9.07;;
5878;SDS011;2965;42.640;23.370;2023-05-10T15:17:17;11.77;;;9.73;;
5878;SDS011;2965;42.640;23.370;2023-05-10T15:19:42;14.00;;;9.83;;
5878;SDS011;2965;42.640;23.370;2023-05-10T15:22:08;9.60;;;8.70;;
5878;SDS011;2965;42.640;23.370;2023-05-10T15:24:33;13.80;;;9.67;;
5878;SDS011;2965;42.640;23.370;2023-05-10T15:26:59;11.50;;;10.07;;
5878;SDS011;2965;42.640;23.370;2023-05-10T15:29:25;11.60;;;10.33;;
5878;SDS011;2965;42.640;23.370;2023-05-10T15:31:50;14.90;;;9.80;;
5878;SDS011;2965;42.640;23.370;2023-05-10T15:34:16;11.77;;;10.00;;
5878;SDS011;2965;42.640;23.370;2023-05-10T15:36:42;14.87;;;8.93;;
5878;SDS011;2965;42.640;23.370;2023-05-10T15:39:08;11.37;;;9.83;;
5878;SDS011;2965;42.640;23.370;2023-05-10T15:41:34;9.57;;;8.67;;
5878;SDS011;2965;42.640;23.370;2023-05-10T15:43:59;12.50;;;8.60;;
5878;SDS011;2965;42.640;23.370;2023-05-10T15:46:25;10.30;;;9.30;;
5878;SDS011;2965;42.640;23.370;2023-05-10T15:48:52;12.10;;;10.20;;
5878;SDS011;2965;42.640;23.370;2023-05-10T15:51:17;10.80;;;9.83;;
5878;SDS011;2965;42.640;23.370;2023-05-10T15:53:43;12.53;;;9.77;;
5878;SDS011;2965;42.640;23.370;2023-05-10T15:56:09;16.53;;;9.50;;
5878;SDS011;2965;42.640;23.370;2023-05-10T15:58:35;14.63;;;10.03;;
5878;SDS011;2965;42.640;23.370;2023-05-10T16:01:02;20.83;;;10.20;;
5878;SDS011;2965;42.640;23.370;2023-05-10T16:03:28;21.70;;;9.80;;
5878;SDS011;2965;42.640;23.370;2023-05-10T16:05:54;14.63;;;9.87;;
5878;SDS011;2965;42.640;23.370;2023-05-10T16:08:20;16.30;;;10.77;;
5878;SDS011;2965;42.640;23.370;2023-05-10T16:10:45;15.83;;;11.07;;
5878;SDS011;2965;42.640;23.370;2023-05-10T16:13:11;10.87;;;9.70;;
5878;SDS011;2965;42.640;23.370;2023-05-10T16:15:36;11.23;;;10.00;;
5878;SDS011;2965;42.640;23.370;2023-05-10T16:18:01;17.73;;;10.80;;
5878;SDS011;2965;42.640;23.370;2023-05-10T16:20:27;13.23;;;10.90;;
5878;SDS011;2965;42.640;23.370;2023-05-10T16:22:53;16.27;;;10.30;;
5878;SDS011;2965;42.640;23.370;2023-05-10T16:25:19;14.67;;;12.67;;
5878;SDS011;2965;42.640;23.370;2023-05-10T16:27:45;14.00;;;11.70;;
5878;SDS011;2965;42.640;23.370;2023-05-10T16:30:11;11.57;;;10.27;;
5878;SDS011;2965;42.640;23.370;2023-05-10T16:32:36;16.37;;;10.00;;
5878;SDS011;2965;42.640;23.370;2023-05-10T16:35:01;12.77;;;11.40;;
5878;SDS011;2965;42.640;23.370;2023-05-10T16:37:27;13.20;;;9.80;;
5878;SDS011;2965;42.640;23.370;2023-05-10T16:39:52;12.47;;;11.17;;
5878;SDS011;2965;42.640;23.370;2023-05-10T16:42:18;19.53;;;9.80;;
5878;SDS011;2965;42.640;23.370;2023-05-10T16:44:43;16.30;;;10.10;;
5878;SDS011;2965;42.640;23.370;2023-05-10T16:47:08;15.57;;;10.40;;
5878;SDS011;2965;42.640;23.370;2023-05-10T16:49:34;15.83;;;11.10;;
5878;SDS011;2965;42.640;23.370;2023-05-10T16:52:01;13.50;;;11.70;;
5878;SDS011;2965;42.640;23.370;2023-05-10T16:54:27;14.03;;;11.30;;
5878;SDS011;2965;42.640;23.370;2023-05-10T16:56:53;13.77;;;11.17;;
5878;SDS011;2965;42.640;23.370;2023-05-10T16:59:18;12.23;;;10.90;;
